Time,TemperatureF,DewpointF,PressureIn,WindDirection,WindDirectionDegrees,WindSpeedMPH,WindSpeedGustMPH,Humidity,HourlyPrecipIn,Conditions,Clouds,dailyrainin,SoftwareType,DateUTC
2013-10-10 00:03:00,51.9,46.3,30.29,NNW,338,0.0,0.0,81,0.00,,,0.00,WUHU216HW,2013-10-10 04:03:00,
2013-10-10 00:08:00,51.8,46.1,30.29,NNW,338,0.0,0.0,81,0.00,,,0.00,WUHU216HW,2013-10-10 04:08:00,
2013-10-10 00:13:00,51.6,45.9,30.29,NNW,338,0.0,0.0,81,0.00,,,0.00,WUHU216HW,2013-10-10 04:13:00,
2013-10-10 00:18:00,51.4,45.8,30.29,NNW,338,0.0,0.0,81,0.00,,,0.00,WUHU216HW,2013-10-10 04:18:00,
2013-10-10 00:23:00,51.4,45.8,30.29,NNW,338,0.0,0.0,81,0.00,,,0.00,WUHU216HW,2013-10-10 04:23:00,
2013-10-10 00:28:00,51.2,45.6,30.29,NNW,338,0.0,0.0,81,0.00,,,0.00,WUHU216HW,2013-10-10 04:28:00,
2013-10-10 00:33:00,51.0,45.4,30.29,NNW,338,0.0,0.0,81,0.00,,,0.00,WUHU216HW,2013-10-10 04:33:00,
2013-10-10 00:38:00,50.9,45.2,30.29,NNW,338,0.0,0.0,81,0.00,,,0.00,WUHU216HW,2013-10-10 04:38:00,
2013-10-10 00:43:00,50.9,45.2,30.29,NNW,338,0.0,0.0,81,0.00,,,0.00,WUHU216HW,2013-10-10 04:43:00,
2013-10-10 00:48:00,50.7,45.0,30.29,NNW,338,0.0,0.0,81,0.00,,,0.00,WUHU216HW,2013-10-10 04:48:00,
2013-10-10 00:53:00,50.5,44.9,30.29,NNW,338,0.0,0.0,81,0.00,,,0.00,WUHU216HW,2013-10-10 04:53:00,
2013-10-10 00:59:00,50.3,45.0,30.29,NNW,338,0.0,0.0,82,0.00,,,0.00,WUHU216HW,2013-10-10 04:59:00,
2013-10-10 01:04:00,50.1,44.8,30.29,NNW,338,0.0,0.0,82,0.00,,,0.00,WUHU216HW,2013-10-10 05:04:00,
2013-10-10 01:09:00,50.1,44.8,30.28,NNW,338,0.0,0.0,82,0.00,,,0.00,WUHU216HW,2013-10-10 05:09:00,
2013-10-10 01:14:00,49.8,44.4,30.28,NNW,338,0.0,0.0,82,0.00,,,0.00,WUHU216HW,2013-10-10 05:14:00,
2013-10-10 01:19:00,49.8,44.4,30.28,NNW,338,0.0,0.0,82,0.00,,,0.00,WUHU216HW,2013-10-10 05:19:00,
2013-10-10 01:24:00,49.6,44.3,30.28,NNW,338,0.0,0.0,82,0.00,,,0.00,WUHU216HW,2013-10-10 05:24:00,
2013-10-10 01:29:00,49.6,44.0,30.28,NNW,338,0.0,0.0,81,0.00,,,0.00,WUHU216HW,2013-10-10 05:29:00,
2013-10-10 01:34:00,49.2,43.6,30.28,NNW,338,0.0,0.0,81,0.00,,,0.00,WUHU216HW,2013-10-10 05:34:00,
2013-10-10 01:39:00,49.2,43.9,30.28,NNW,338,0.0,0.0,82,0.00,,,0.00,WUHU216HW,2013-10-10 05:39:00,
2013-10-10 01:44:00,49.1,43.7,30.28,NNW,338,0.0,0.0,82,0.00,,,0.00,WUHU216HW,2013-10-10 05:44:00,
2013-10-10 01:49:00,48.9,43.6,30.28,NNW,338,0.0,0.0,82,0.00,,,0.00,WUHU216HW,2013-10-10 05:49:00,
2013-10-10 01:54:00,48.9,43.6,30.28,NNW,338,0.0,0.0,82,0.00,,,0.00,WUHU216HW,2013-10-10 05:54:00,
2013-10-10 01:59:00,48.7,43.4,30.28,NNW,338,0.0,0.0,82,0.00,,,0.00,WUHU216HW,2013-10-10 05:59:00,
2013-10-10 02:04:00,48.7,43.4,30.28,NNW,338,0.0,0.0,82,0.00,,,0.00,WUHU216HW,2013-10-10 06:04:00,
2013-10-10 02:09:00,48.5,43.2,30.28,NNW,338,0.0,0.0,82,0.00,,,0.00,WUHU216HW,2013-10-10 06:09:00,
2013-10-10 02:14:00,48.3,43.3,30.28,NNW,338,0.0,0.0,83,0.00,,,0.00,WUHU216HW,2013-10-10 06:14:00,
2013-10-10 02:19:00,48.3,43.3,30.28,NNW,338,0.0,0.0,83,0.00,,,0.00,WUHU216HW,2013-10-10 06:19:00,
2013-10-10 02:24:00,48.5,43.5,30.28,NNW,338,0.0,0.0,83,0.00,,,0.00,WUHU216HW,2013-10-10 06:24:00,
2013-10-10 02:29:00,48.5,43.5,30.27,NNW,338,0.0,0.0,83,0.00,,,0.00,WUHU216HW,2013-10-10 06:29:00,
2013-10-10 02:34:00,48.7,43.7,30.27,NNW,338,0.0,0.0,83,0.00,,,0.00,WUHU216HW,2013-10-10 06:34:00,
2013-10-10 02:39:00,48.7,44.0,30.27,NNW,338,0.0,0.0,84,0.00,,,0.00,WUHU216HW,2013-10-10 06:39:00,
2013-10-10 02:44:00,48.7,44.0,30.27,NNW,338,0.0,0.0,84,0.00,,,0.00,WUHU216HW,2013-10-10 06:44:00,
2013-10-10 02:49:00,48.9,44.2,30.28,NNW,338,0.0,0.0,84,0.00,,,0.00,WUHU216HW,2013-10-10 06:49:00,
2013-10-10 02:54:00,48.9,44.2,30.27,NNW,338,0.0,0.0,84,0.00,,,0.00,WUHU216HW,2013-10-10 06:54:00,
2013-10-10 02:59:00,49.1,44.2,30.27,NNW,338,0.0,0.0,84,0.00,,,0.00,WUHU216HW,2013-10-10 06:59:00,
2013-10-10 03:04:00,49.1,44.4,30.27,NNW,338,0.0,0.0,84,0.00,,,0.00,WUHU216HW,2013-10-10 07:04:00,
2013-10-10 03:09:00,49.1,44.4,30.27,NNW,338,0.0,0.0,84,0.00,,,0.00,WUHU216HW,2013-10-10 07:09:00,
2013-10-10 03:14:00,49.1,44.4,30.27,NNW,338,0.0,0.0,84,0.00,,,0.00,WUHU216HW,2013-10-10 07:14:00,
2013-10-10 03:19:00,49.1,44.4,30.28,NNW,338,0.0,0.0,84,0.00,,,0.00,WUHU216HW,2013-10-10 07:19:00,
2013-10-10 03:24:00,49.1,44.7,30.27,NNW,338,0.0,0.0,85,0.00,,,0.00,WUHU216HW,2013-10-10 07:24:00,
2013-10-10 03:29:00,49.1,44.7,30.27,NNW,338,0.0,0.0,85,0.00,,,0.00,WUHU216HW,2013-10-10 07:29:00,
2013-10-10 03:34:00,49.1,44.7,30.27,NNW,338,0.0,0.0,85,0.00,,,0.00,WUHU216HW,2013-10-10 07:34:00,
2013-10-10 03:39:00,49.1,44.7,30.27,NNW,338,0.0,0.0,85,0.00,,,0.00,WUHU216HW,2013-10-10 07:39:00,
2013-10-10 03:44:00,49.2,44.9,30.27,NNW,338,0.0,0.0,85,0.00,,,0.00,WUHU216HW,2013-10-10 07:44:00,
2013-10-10 03:49:00,49.2,44.9,30.27,NNW,338,0.0,0.0,85,0.00,,,0.00,WUHU216HW,2013-10-10 07:49:00,
2013-10-10 03:54:00,49.2,44.9,30.27,NNW,338,0.0,0.0,85,0.00,,,0.00,WUHU216HW,2013-10-10 07:54:00,
2013-10-10 03:59:00,49.2,44.9,30.27,NNW,338,0.0,0.0,85,0.00,,,0.00,WUHU216HW,2013-10-10 07:59:00,
2013-10-10 04:04:00,49.6,45.2,30.27,NNW,338,0.0,0.0,85,0.00,,,0.00,WUHU216HW,2013-10-10 08:04:00,
2013-10-10 04:09:00,49.6,45.2,30.27,NNW,338,0.0,0.0,85,0.00,,,0.00,WUHU216HW,2013-10-10 08:09:00,
2013-10-10 04:14:00,49.6,45.2,30.26,NNW,338,0.0,0.0,85,0.00,,,0.00,WUHU216HW,2013-10-10 08:14:00,
2013-10-10 04:19:00,49.6,45.2,30.27,NNW,338,0.0,0.0,85,0.00,,,0.00,WUHU216HW,2013-10-10 08:19:00,
2013-10-10 04:24:00,49.6,45.2,30.27,NNW,338,0.0,0.0,85,0.00,,,0.00,WUHU216HW,2013-10-10 08:24:00,
2013-10-10 04:29:00,49.6,45.5,30.27,NNW,338,0.0,0.0,86,0.00,,,0.00,WUHU216HW,2013-10-10 08:29:00,
2013-10-10 04:34:00,49.6,45.5,30.27,NNW,338,0.0,0.0,86,0.00,,,0.00,WUHU216HW,2013-10-10 08:34:00,
2013-10-10 04:39:00,49.6,45.5,30.27,NNW,338,0.0,0.0,86,0.00,,,0.00,WUHU216HW,2013-10-10 08:39:00,
2013-10-10 04:44:00,49.6,45.5,30.27,NNW,338,0.0,0.0,86,0.00,,,0.00,WUHU216HW,2013-10-10 08:44:00,
2013-10-10 04:49:00,49.6,45.5,30.27,NNW,338,0.0,0.0,86,0.00,,,0.00,WUHU216HW,2013-10-10 08:49:00,
2013-10-10 04:54:00,49.6,45.5,30.27,NNW,338,0.0,0.0,86,0.00,,,0.00,WUHU216HW,2013-10-10 08:54:00,
2013-10-10 04:59:00,49.6,45.5,30.27,NNW,338,0.0,0.0,86,0.00,,,0.00,WUHU216HW,2013-10-10 08:59:00,
2013-10-10 05:04:00,49.6,45.5,30.27,NNW,338,0.0,0.0,86,0.00,,,0.00,WUHU216HW,2013-10-10 09:04:00,
2013-10-10 05:09:00,49.6,45.5,30.27,NNW,338,0.0,0.0,86,0.00,,,0.00,WUHU216HW,2013-10-10 09:09:00,
2013-10-10 05:14:00,49.6,45.5,30.27,NNW,338,0.0,0.0,86,0.00,,,0.00,WUHU216HW,2013-10-10 09:14:00,
2013-10-10 05:19:00,49.6,45.5,30.27,NNW,338,0.0,0.0,86,0.00,,,0.00,WUHU216HW,2013-10-10 09:19:00,
2013-10-10 05:24:00,49.6,45.5,30.27,NNW,338,0.0,0.0,86,0.00,,,0.00,WUHU216HW,2013-10-10 09:24:00,
2013-10-10 05:29:00,49.4,45.3,30.27,NNW,338,0.0,0.0,86,0.00,,,0.00,WUHU216HW,2013-10-10 09:29:00,
2013-10-10 05:34:00,49.4,45.3,30.27,NNW,338,0.0,0.0,86,0.00,,,0.00,WUHU216HW,2013-10-10 09:34:00,
2013-10-10 05:39:00,49.2,45.2,30.27,NNW,338,0.0,0.0,86,0.00,,,0.00,WUHU216HW,2013-10-10 09:39:00,
2013-10-10 05:44:00,49.2,45.2,30.27,NNW,338,0.0,0.0,86,0.00,,,0.00,WUHU216HW,2013-10-10 09:44:00,
2013-10-10 05:49:00,49.2,45.2,30.28,NNW,338,0.0,0.0,86,0.00,,,0.00,WUHU216HW,2013-10-10 09:49:00,
2013-10-10 05:54:00,49.1,45.0,30.28,NNW,338,0.0,0.0,86,0.00,,,0.00,WUHU216HW,2013-10-10 09:54:00,
2013-10-10 05:59:00,48.9,44.8,30.28,NNW,338,0.0,0.0,86,0.00,,,0.00,WUHU216HW,2013-10-10 09:59:00,
2013-10-10 06:04:00,48.9,44.8,30.28,NNW,338,0.0,0.0,86,0.00,,,0.00,WUHU216HW,2013-10-10 10:04:00,
2013-10-10 06:09:00,48.9,44.8,30.28,NNW,338,0.0,0.0,86,0.00,,,0.00,WUHU216HW,2013-10-10 10:09:00,
2013-10-10 06:14:00,48.9,44.8,30.28,NNW,338,0.0,0.0,86,0.00,,,0.00,WUHU216HW,2013-10-10 10:14:00,
2013-10-10 06:19:00,48.9,44.8,30.28,NNW,338,0.0,0.0,86,0.00,,,0.00,WUHU216HW,2013-10-10 10:19:00,
2013-10-10 06:24:00,48.9,44.8,30.28,NNW,338,0.0,0.0,86,0.00,,,0.00,WUHU216HW,2013-10-10 10:24:00,
2013-10-10 06:29:00,48.7,44.7,30.28,NNW,338,0.0,0.0,86,0.00,,,0.00,WUHU216HW,2013-10-10 10:29:00,
2013-10-10 06:34:00,48.7,44.7,30.28,NNW,338,0.0,0.0,86,0.00,,,0.00,WUHU216HW,2013-10-10 10:34:00,
2013-10-10 06:39:00,48.7,44.7,30.28,NNW,338,0.0,0.0,86,0.00,,,0.00,WUHU216HW,2013-10-10 10:39:00,
2013-10-10 06:44:00,48.5,44.8,30.28,NNW,338,0.0,0.0,87,0.00,,,0.00,WUHU216HW,2013-10-10 10:44:00,
2013-10-10 06:49:00,48.3,44.6,30.28,NNW,338,0.0,0.0,87,0.00,,,0.00,WUHU216HW,2013-10-10 10:49:00,
2013-10-10 06:54:00,48.3,44.6,30.28,NNW,338,0.0,0.0,87,0.00,,,0.00,WUHU216HW,2013-10-10 10:54:00,
2013-10-10 06:59:00,48.0,44.3,30.28,NNW,338,0.0,0.0,87,0.00,,,0.00,WUHU216HW,2013-10-10 10:59:00,
2013-10-10 07:04:00,48.0,44.3,30.28,NNW,338,0.0,0.0,87,0.00,,,0.00,WUHU216HW,2013-10-10 11:04:00,
2013-10-10 07:09:00,48.0,44.3,30.29,NNW,338,0.0,0.0,87,0.00,,,0.00,WUHU216HW,2013-10-10 11:09:00,
2013-10-10 07:14:00,47.8,44.1,30.29,NNW,338,0.0,0.0,87,0.00,,,0.00,WUHU216HW,2013-10-10 11:14:00,
2013-10-10 07:19:00,47.6,43.9,30.29,NNW,338,0.0,0.0,87,0.00,,,0.00,WUHU216HW,2013-10-10 11:19:00,
2013-10-10 07:24:00,47.4,43.8,30.29,NNW,338,0.0,0.0,87,0.00,,,0.00,WUHU216HW,2013-10-10 11:24:00,
2013-10-10 07:29:00,47.4,44.1,30.29,NNW,338,0.0,0.0,88,0.00,,,0.00,WUHU216HW,2013-10-10 11:29:00,
2013-10-10 07:34:00,47.3,43.9,30.29,NNW,338,0.0,0.0,88,0.00,,,0.00,WUHU216HW,2013-10-10 11:34:00,
2013-10-10 07:39:00,47.3,43.9,30.29,NNW,338,0.0,0.0,88,0.00,,,0.00,WUHU216HW,2013-10-10 11:39:00,
2013-10-10 07:44:00,47.1,43.7,30.29,NNW,338,0.0,0.0,88,0.00,,,0.00,WUHU216HW,2013-10-10 11:44:00,
2013-10-10 07:49:00,47.1,43.7,30.29,NNW,338,0.0,0.0,88,0.00,,,0.00,WUHU216HW,2013-10-10 11:49:00,
2013-10-10 07:54:00,46.9,43.6,30.28,NNW,338,0.0,0.0,88,0.00,,,0.00,WUHU216HW,2013-10-10 11:54:00,
2013-10-10 07:59:00,46.9,43.6,30.29,NNW,338,0.0,0.0,88,0.00,,,0.00,WUHU216HW,2013-10-10 11:59:00,
2013-10-10 08:04:00,46.9,43.6,30.29,NNW,338,0.0,0.0,88,0.00,,,0.00,WUHU216HW,2013-10-10 12:04:00,
2013-10-10 08:09:00,46.9,43.6,30.29,NNW,338,0.0,0.0,88,0.00,,,0.00,WUHU216HW,2013-10-10 12:09:00,
2013-10-10 08:14:00,46.5,43.2,30.29,NNW,338,0.0,0.0,88,0.00,,,0.00,WUHU216HW,2013-10-10 12:14:00,
2013-10-10 08:19:00,46.5,43.2,30.29,NNW,338,0.0,0.0,88,0.00,,,0.00,WUHU216HW,2013-10-10 12:19:00,
2013-10-10 08:24:00,46.5,43.2,30.29,NNW,338,0.0,0.0,88,0.00,,,0.00,WUHU216HW,2013-10-10 12:24:00,
2013-10-10 08:29:00,46.4,43.0,30.29,NNW,338,0.0,0.0,88,0.00,,,0.00,WUHU216HW,2013-10-10 12:29:00,
2013-10-10 08:34:00,46.4,43.0,30.29,NNW,338,0.0,0.0,88,0.00,,,0.00,WUHU216HW,2013-10-10 12:34:00,
2013-10-10 08:39:00,46.5,43.2,30.29,NNW,338,0.0,0.0,88,0.00,,,0.00,WUHU216HW,2013-10-10 12:39:00,
2013-10-10 08:44:00,46.5,43.2,30.29,NNW,338,0.0,0.0,88,0.00,,,0.00,WUHU216HW,2013-10-10 12:44:00,
2013-10-10 08:50:00,46.7,43.7,30.29,NNW,338,0.0,0.0,89,0.00,,,0.00,WUHU216HW,2013-10-10 12:50:00,
2013-10-10 08:55:00,46.9,43.9,30.29,NNW,338,0.0,0.0,89,0.00,,,0.00,WUHU216HW,2013-10-10 12:55:00,
2013-10-10 09:00:00,46.9,43.9,30.29,NNW,338,0.0,0.0,89,0.00,,,0.00,WUHU216HW,2013-10-10 13:00:00,
2013-10-10 09:05:00,47.1,44.0,30.29,NNW,338,0.0,0.0,89,0.00,,,0.00,WUHU216HW,2013-10-10 13:05:00,
2013-10-10 09:10:00,47.3,44.2,30.29,NNW,338,0.0,0.0,89,0.00,,,0.00,WUHU216HW,2013-10-10 13:10:00,
2013-10-10 09:15:00,47.4,44.4,30.29,NNW,338,0.0,0.0,89,0.00,,,0.00,WUHU216HW,2013-10-10 13:15:00,
2013-10-10 09:20:00,47.8,44.8,30.29,NNW,338,0.0,0.0,89,0.00,,,0.00,WUHU216HW,2013-10-10 13:20:00,
2013-10-10 09:25:00,48.0,44.9,30.29,NNW,338,0.0,0.0,89,0.00,,,0.00,WUHU216HW,2013-10-10 13:25:00,
2013-10-10 09:30:00,48.0,44.9,30.30,NNW,338,0.0,0.0,89,0.00,,,0.00,WUHU216HW,2013-10-10 13:30:00,
2013-10-10 09:35:00,48.3,45.1,30.30,NNW,338,0.0,0.0,89,0.00,,,0.00,WUHU216HW,2013-10-10 13:35:00,
2013-10-10 09:40:00,48.5,45.5,30.30,NNW,338,0.0,0.0,89,0.00,,,0.00,WUHU216HW,2013-10-10 13:40:00,
2013-10-10 09:45:00,48.7,45.6,30.29,NNW,338,0.0,0.0,89,0.00,,,0.00,WUHU216HW,2013-10-10 13:45:00,
2013-10-10 09:50:00,48.9,45.8,30.29,NNW,338,0.0,0.0,89,0.00,,,0.00,WUHU216HW,2013-10-10 13:50:00,
2013-10-10 09:55:00,49.1,45.9,30.29,NNW,338,0.0,0.0,89,0.00,,,0.00,WUHU216HW,2013-10-10 13:55:00,
2013-10-10 10:00:00,49.4,46.3,30.29,NNW,338,0.0,0.0,89,0.00,,,0.00,WUHU216HW,2013-10-10 14:00:00,
2013-10-10 10:05:00,49.6,46.4,30.29,NNW,338,0.0,0.0,89,0.00,,,0.00,WUHU216HW,2013-10-10 14:05:00,
2013-10-10 10:10:00,50.1,46.9,30.29,NNW,338,0.0,0.0,89,0.00,,,0.00,WUHU216HW,2013-10-10 14:10:00,
2013-10-10 10:15:00,50.5,47.3,30.29,NNW,338,0.0,0.0,89,0.00,,,0.00,WUHU216HW,2013-10-10 14:15:00,
2013-10-10 10:20:00,51.0,47.8,30.29,NNW,338,0.0,0.0,89,0.00,,,0.00,WUHU216HW,2013-10-10 14:20:00,
2013-10-10 10:25:00,51.6,48.7,30.29,NNW,338,0.0,0.0,90,0.00,,,0.00,WUHU216HW,2013-10-10 14:25:00,
2013-10-10 10:30:00,52.1,49.2,30.29,NNW,338,0.0,0.0,90,0.00,,,0.00,WUHU216HW,2013-10-10 14:30:00,
2013-10-10 10:35:00,52.8,50.0,30.29,NNW,338,0.0,0.0,90,0.00,,,0.00,WUHU216HW,2013-10-10 14:35:00,
2013-10-10 10:40:00,53.4,50.9,30.29,NNW,338,0.0,0.0,90,0.00,,,0.00,WUHU216HW,2013-10-10 14:40:00,
2013-10-10 10:45:00,54.5,51.6,30.29,NNW,338,0.0,0.0,90,0.00,,,0.00,WUHU216HW,2013-10-10 14:45:00,
2013-10-10 10:50:00,55.2,52.3,30.29,NNW,338,0.0,0.0,90,0.00,,,0.00,WUHU216HW,2013-10-10 14:50:00,
2013-10-10 10:55:00,56.4,53.6,30.29,NW,315,0.0,0.0,90,0.00,,,0.00,WUHU216HW,2013-10-10 14:55:00,
2013-10-10 11:00:00,57.3,54.5,30.28,NW,315,0.0,0.0,90,0.00,,,0.00,WUHU216HW,2013-10-10 15:00:00,
2013-10-10 11:05:00,58.1,55.2,30.28,NW,315,0.0,0.0,90,0.00,,,0.00,WUHU216HW,2013-10-10 15:05:00,
2013-10-10 11:10:00,58.8,55.9,30.28,NW,315,0.0,0.0,90,0.00,,,0.00,WUHU216HW,2013-10-10 15:10:00,
2013-10-10 11:15:00,59.7,56.5,30.29,NW,315,0.0,0.0,89,0.00,,,0.00,WUHU216HW,2013-10-10 15:15:00,
2013-10-10 11:20:00,60.9,57.4,30.29,NW,315,0.0,0.0,88,0.00,,,0.00,WUHU216HW,2013-10-10 15:20:00,
2013-10-10 11:25:00,61.5,57.6,30.28,North,0,0.0,0.0,87,0.00,,,0.00,WUHU216HW,2013-10-10 15:25:00,
2013-10-10 11:30:00,62.2,57.3,30.28,NW,315,0.0,0.0,84,0.00,,,0.00,WUHU216HW,2013-10-10 15:30:00,
2013-10-10 11:35:00,62.7,57.1,30.28,East,90,0.0,0.0,82,0.00,,,0.00,WUHU216HW,2013-10-10 15:35:00,
2013-10-10 11:40:00,63.3,57.3,30.28,North,0,0.0,0.0,81,0.00,,,0.00,WUHU216HW,2013-10-10 15:40:00,
2013-10-10 11:45:00,64.0,57.0,30.28,NNW,338,0.0,0.0,78,0.00,,,0.00,WUHU216HW,2013-10-10 15:45:00,
2013-10-10 11:50:00,64.4,56.4,30.28,NW,315,0.0,2.9,75,0.00,,,0.00,WUHU216HW,2013-10-10 15:50:00,
2013-10-10 11:55:00,65.1,56.2,30.27,NNW,338,0.0,2.9,73,0.00,,,0.00,WUHU216HW,2013-10-10 15:55:00,
2013-10-10 12:00:00,65.3,54.8,30.27,NE,45,3.3,3.3,69,0.00,,,0.00,WUHU216HW,2013-10-10 16:00:00,
2013-10-10 12:05:00,65.6,54.3,30.27,NNW,338,0.0,3.3,67,0.00,,,0.00,WUHU216HW,2013-10-10 16:05:00,
2013-10-10 12:10:00,66.0,54.6,30.27,NW,315,4.9,4.9,67,0.00,,,0.00,WUHU216HW,2013-10-10 16:10:00,
2013-10-10 12:15:00,66.2,54.8,30.27,NNW,338,0.0,4.9,67,0.00,,,0.00,WUHU216HW,2013-10-10 16:15:00,
2013-10-10 12:20:00,66.3,54.6,30.27,NNW,338,0.0,4.9,66,0.00,,,0.00,WUHU216HW,2013-10-10 16:20:00,
2013-10-10 12:25:00,66.9,54.7,30.27,NNE,23,0.0,0.0,65,0.00,,,0.00,WUHU216HW,2013-10-10 16:25:00,
2013-10-10 12:30:00,67.1,54.0,30.26,North,0,0.0,0.0,63,0.00,,,0.00,WUHU216HW,2013-10-10 16:30:00,
2013-10-10 12:35:00,66.9,53.8,30.26,North,0,0.0,0.0,63,0.00,,,0.00,WUHU216HW,2013-10-10 16:35:00,
2013-10-10 12:40:00,67.1,54.4,30.26,NW,315,0.0,0.0,64,0.00,,,0.00,WUHU216HW,2013-10-10 16:40:00,
2013-10-10 12:45:00,67.6,54.9,30.26,NNW,338,0.0,2.9,64,0.00,,,0.00,WUHU216HW,2013-10-10 16:45:00,
2013-10-10 12:50:00,67.8,54.2,30.26,NW,315,0.0,2.9,62,0.00,,,0.00,WUHU216HW,2013-10-10 16:50:00,
2013-10-10 12:55:00,68.1,54.1,30.26,NW,315,3.5,3.5,61,0.00,,,0.00,WUHU216HW,2013-10-10 16:55:00,
2013-10-10 13:00:00,68.1,54.1,30.26,North,0,0.0,3.5,61,0.00,,,0.00,WUHU216HW,2013-10-10 17:00:00,
2013-10-10 13:05:00,68.3,54.3,30.26,North,0,0.0,3.5,61,0.00,,,0.00,WUHU216HW,2013-10-10 17:05:00,
2013-10-10 13:10:00,68.5,54.1,30.26,NW,315,0.0,0.0,60,0.00,,,0.00,WUHU216HW,2013-10-10 17:10:00,
2013-10-10 13:15:00,68.7,53.8,30.25,WSW,248,0.0,0.0,59,0.00,,,0.00,WUHU216HW,2013-10-10 17:15:00,
2013-10-10 13:20:00,68.7,53.8,30.25,WSW,248,0.0,0.0,59,0.00,,,0.00,WUHU216HW,2013-10-10 17:20:00,
2013-10-10 13:25:00,68.9,53.5,30.25,WSW,248,2.2,2.2,58,0.00,,,0.00,WUHU216HW,2013-10-10 17:25:00,
2013-10-10 13:30:00,68.9,53.5,30.25,NNW,338,0.0,2.2,58,0.00,,,0.00,WUHU216HW,2013-10-10 17:30:00,
2013-10-10 13:35:00,69.0,53.1,30.25,WSW,248,0.0,2.2,57,0.00,,,0.00,WUHU216HW,2013-10-10 17:35:00,
2013-10-10 13:40:00,69.0,53.1,30.25,WSW,248,0.0,1.1,57,0.00,,,0.00,WUHU216HW,2013-10-10 17:40:00,
2013-10-10 13:45:00,69.0,52.6,30.25,WSW,248,1.1,1.1,56,0.00,,,0.00,WUHU216HW,2013-10-10 17:45:00,
2013-10-10 13:50:00,69.0,53.1,30.25,WSW,248,0.0,6.4,57,0.00,,,0.00,WUHU216HW,2013-10-10 17:50:00,
2013-10-10 13:55:00,69.0,52.6,30.24,WSW,248,0.0,6.4,56,0.00,,,0.00,WUHU216HW,2013-10-10 17:55:00,
2013-10-10 14:00:00,69.0,52.6,30.24,WSW,248,0.0,0.8,56,0.00,,,0.00,WUHU216HW,2013-10-10 18:00:00,
2013-10-10 14:05:00,69.2,52.8,30.24,WSW,248,0.0,0.8,56,0.00,,,0.00,WUHU216HW,2013-10-10 18:05:00,
2013-10-10 14:10:00,69.4,53.0,30.24,WSW,248,3.3,3.3,56,0.00,,,0.00,WUHU216HW,2013-10-10 18:10:00,
2013-10-10 14:15:00,69.2,52.3,30.24,WSW,248,0.0,3.3,55,0.00,,,0.00,WUHU216HW,2013-10-10 18:15:00,
2013-10-10 14:20:00,69.2,52.6,30.24,WSW,248,0.0,3.3,56,0.00,,,0.00,WUHU216HW,2013-10-10 18:20:00,
2013-10-10 14:25:00,69.2,52.3,30.24,WSW,248,3.3,3.3,55,0.00,,,0.00,WUHU216HW,2013-10-10 18:25:00,
2013-10-10 14:30:00,69.0,52.1,30.24,WNW,293,0.0,3.3,55,0.00,,,0.00,WUHU216HW,2013-10-10 18:30:00,
2013-10-10 14:35:00,68.9,51.5,30.24,NNW,338,0.0,3.3,55,0.00,,,0.00,WUHU216HW,2013-10-10 18:35:00,
2013-10-10 14:40:00,68.7,51.3,30.23,NNW,338,0.0,2.6,54,0.00,,,0.00,WUHU216HW,2013-10-10 18:40:00,
2013-10-10 14:45:00,68.5,51.1,30.23,NNE,23,0.0,0.0,54,0.00,,,0.00,WUHU216HW,2013-10-10 18:45:00,
2013-10-10 14:50:00,68.5,51.6,30.23,North,0,3.8,3.8,55,0.00,,,0.00,WUHU216HW,2013-10-10 18:50:00,
2013-10-10 14:55:00,68.3,51.5,30.23,NW,315,0.0,3.8,55,0.00,,,0.00,WUHU216HW,2013-10-10 18:55:00,
2013-10-10 15:00:00,68.5,51.6,30.23,NW,315,0.0,3.8,55,0.00,,,0.00,WUHU216HW,2013-10-10 19:00:00,
2013-10-10 15:05:00,68.3,51.5,30.23,North,0,3.1,4.2,55,0.00,,,0.00,WUHU216HW,2013-10-10 19:05:00,
2013-10-10 15:10:00,68.1,51.3,30.23,North,0,0.0,5.3,55,0.00,,,0.00,WUHU216HW,2013-10-10 19:10:00,
2013-10-10 15:15:00,68.1,51.3,30.23,NNW,338,4.9,5.3,55,0.00,,,0.00,WUHU216HW,2013-10-10 19:15:00,
2013-10-10 15:20:00,67.8,51.0,30.23,NNW,338,6.0,6.0,55,0.00,,,0.00,WUHU216HW,2013-10-10 19:20:00,
2013-10-10 15:25:00,67.8,51.4,30.23,NNW,338,1.5,6.0,56,0.00,,,0.00,WUHU216HW,2013-10-10 19:25:00,
2013-10-10 15:30:00,67.8,51.9,30.23,NNW,338,0.0,3.5,57,0.00,,,0.00,WUHU216HW,2013-10-10 19:30:00,
2013-10-10 15:35:00,67.8,52.1,30.23,North,0,0.0,1.5,57,0.00,,,0.00,WUHU216HW,2013-10-10 19:35:00,
2013-10-10 15:40:00,68.1,52.7,30.23,NW,315,0.0,0.0,58,0.00,,,0.00,WUHU216HW,2013-10-10 19:40:00,
2013-10-10 15:45:00,68.1,52.3,30.23,North,0,0.0,0.0,57,0.00,,,0.00,WUHU216HW,2013-10-10 19:45:00,
2013-10-10 15:50:00,68.1,52.3,30.23,WNW,293,0.0,2.9,57,0.00,,,0.00,WUHU216HW,2013-10-10 19:50:00,
2013-10-10 15:55:00,67.8,52.4,30.23,WNW,293,0.0,2.9,58,0.00,,,0.00,WUHU216HW,2013-10-10 19:55:00,
2013-10-10 16:00:00,67.8,52.4,30.22,NNW,338,1.5,1.5,58,0.00,,,0.00,WUHU216HW,2013-10-10 20:00:00,
2013-10-10 16:05:00,67.8,51.9,30.23,NNE,23,0.0,1.7,57,0.00,,,0.00,WUHU216HW,2013-10-10 20:05:00,
2013-10-10 16:10:00,67.8,52.4,30.23,NNW,338,2.0,2.0,58,0.00,,,0.00,WUHU216HW,2013-10-10 20:10:00,
2013-10-10 16:15:00,67.8,52.4,30.23,North,0,0.0,2.0,58,0.00,,,0.00,WUHU216HW,2013-10-10 20:15:00,
2013-10-10 16:20:00,68.0,52.1,30.22,NNW,338,0.0,2.0,57,0.00,,,0.00,WUHU216HW,2013-10-10 20:20:00,
2013-10-10 16:25:00,68.0,52.6,30.22,NW,315,2.9,2.9,58,0.00,,,0.00,WUHU216HW,2013-10-10 20:25:00,
2013-10-10 16:30:00,68.0,52.6,30.22,NNW,338,0.0,2.9,58,0.00,,,0.00,WUHU216HW,2013-10-10 20:30:00,
2013-10-10 16:35:00,67.8,52.4,30.22,NNE,23,0.0,2.9,58,0.00,,,0.00,WUHU216HW,2013-10-10 20:35:00,
2013-10-10 16:40:00,67.8,52.9,30.21,NNW,338,0.0,0.0,59,0.00,,,0.00,WUHU216HW,2013-10-10 20:40:00,
2013-10-10 16:45:00,67.8,52.4,30.21,NNW,338,0.0,0.0,58,0.00,,,0.00,WUHU216HW,2013-10-10 20:45:00,
2013-10-10 16:50:00,67.8,52.9,30.21,NW,315,0.0,0.0,59,0.00,,,0.00,WUHU216HW,2013-10-10 20:50:00,
2013-10-10 16:55:00,67.8,52.9,30.21,WNW,293,0.0,2.6,59,0.00,,,0.00,WUHU216HW,2013-10-10 20:55:00,
2013-10-10 17:00:00,67.6,52.3,30.21,NNW,338,0.0,3.8,58,0.00,,,0.00,WUHU216HW,2013-10-10 21:00:00,
2013-10-10 17:05:00,67.6,52.3,30.21,NNW,338,4.9,4.9,58,0.00,,,0.00,WUHU216HW,2013-10-10 21:05:00,
2013-10-10 17:10:00,67.4,52.6,30.21,WNW,293,0.0,4.9,59,0.00,,,0.00,WUHU216HW,2013-10-10 21:10:00,
2013-10-10 17:15:00,67.6,52.7,30.21,North,0,0.0,4.9,59,0.00,,,0.00,WUHU216HW,2013-10-10 21:15:00,
2013-10-10 17:20:00,67.4,52.6,30.21,North,0,3.3,3.3,59,0.00,,,0.00,WUHU216HW,2013-10-10 21:20:00,
2013-10-10 17:25:00,67.2,52.4,30.21,NW,315,0.0,3.3,59,0.00,,,0.00,WUHU216HW,2013-10-10 21:25:00,
2013-10-10 17:30:00,67.2,52.4,30.21,WNW,293,0.0,5.1,59,0.00,,,0.00,WUHU216HW,2013-10-10 21:30:00,
2013-10-10 17:35:00,67.2,52.4,30.21,North,0,0.0,5.1,59,0.00,,,0.00,WUHU216HW,2013-10-10 21:35:00,
2013-10-10 17:40:00,67.1,51.8,30.21,NNW,338,0.0,0.6,58,0.00,,,0.00,WUHU216HW,2013-10-10 21:40:00,
2013-10-10 17:46:00,66.9,52.1,30.21,WNW,293,0.0,0.0,59,0.00,,,0.00,WUHU216HW,2013-10-10 21:46:00,
2013-10-10 17:51:00,66.9,51.6,30.21,North,0,0.0,0.0,58,0.00,,,0.00,WUHU216HW,2013-10-10 21:51:00,
2013-10-10 17:56:00,66.7,51.9,30.21,West,270,0.0,0.0,59,0.00,,,0.00,WUHU216HW,2013-10-10 21:56:00,
2013-10-10 18:01:00,66.7,51.4,30.21,NNW,338,0.0,0.0,59,0.00,,,0.00,WUHU216HW,2013-10-10 22:01:00,
2013-10-10 18:06:00,66.5,51.8,30.21,NE,45,0.0,0.0,59,0.00,,,0.00,WUHU216HW,2013-10-10 22:06:00,
2013-10-10 18:11:00,66.3,51.6,30.21,West,270,0.0,0.0,59,0.00,,,0.00,WUHU216HW,2013-10-10 22:11:00,
2013-10-10 18:16:00,66.0,51.3,30.21,North,0,0.0,0.0,59,0.00,,,0.00,WUHU216HW,2013-10-10 22:16:00,
2013-10-10 18:21:00,66.0,51.8,30.21,North,0,0.0,0.0,60,0.00,,,0.00,WUHU216HW,2013-10-10 22:21:00,
2013-10-10 18:26:00,65.8,51.6,30.21,NNW,338,0.0,0.0,60,0.00,,,0.00,WUHU216HW,2013-10-10 22:26:00,
2013-10-10 18:31:00,65.6,51.4,30.21,NNW,338,0.0,0.0,60,0.00,,,0.00,WUHU216HW,2013-10-10 22:31:00,
2013-10-10 18:36:00,65.3,51.0,30.21,WNW,293,0.0,0.0,60,0.00,,,0.00,WUHU216HW,2013-10-10 22:36:00,
2013-10-10 18:41:00,65.1,51.3,30.21,WNW,293,0.0,0.0,61,0.00,,,0.00,WUHU216HW,2013-10-10 22:41:00,
2013-10-10 18:46:00,64.9,51.3,30.21,North,0,0.0,0.0,61,0.00,,,0.00,WUHU216HW,2013-10-10 22:46:00,
2013-10-10 18:51:00,64.5,51.2,30.21,North,0,0.0,0.0,62,0.00,,,0.00,WUHU216HW,2013-10-10 22:51:00,
2013-10-10 18:56:00,64.2,50.8,30.21,North,0,0.0,0.0,62,0.00,,,0.00,WUHU216HW,2013-10-10 22:56:00,
2013-10-10 19:01:00,64.0,51.1,30.21,North,0,0.0,0.0,63,0.00,,,0.00,WUHU216HW,2013-10-10 23:01:00,
2013-10-10 19:06:00,63.6,50.7,30.21,North,0,0.0,0.0,63,0.00,,,0.00,WUHU216HW,2013-10-10 23:06:00,
2013-10-10 19:11:00,63.3,50.8,30.21,North,0,0.0,0.0,64,0.00,,,0.00,WUHU216HW,2013-10-10 23:11:00,
2013-10-10 19:16:00,63.1,50.7,30.21,North,0,0.0,0.0,64,0.00,,,0.00,WUHU216HW,2013-10-10 23:16:00,
2013-10-10 19:21:00,62.9,50.5,30.21,North,0,0.0,0.0,64,0.00,,,0.00,WUHU216HW,2013-10-10 23:21:00,
2013-10-10 19:26:00,62.6,50.2,30.21,North,0,0.0,0.0,64,0.00,,,0.00,WUHU216HW,2013-10-10 23:26:00,
2013-10-10 19:31:00,62.2,49.8,30.21,North,0,0.0,0.0,64,0.00,,,0.00,WUHU216HW,2013-10-10 23:31:00,
2013-10-10 19:36:00,61.8,49.9,30.22,North,0,0.0,0.0,65,0.00,,,0.00,WUHU216HW,2013-10-10 23:36:00,
2013-10-10 19:41:00,61.7,49.8,30.21,North,0,0.0,0.0,65,0.00,,,0.00,WUHU216HW,2013-10-10 23:41:00,
2013-10-10 19:46:00,61.3,49.9,30.22,North,0,0.0,0.0,66,0.00,,,0.00,WUHU216HW,2013-10-10 23:46:00,
2013-10-10 19:51:00,60.9,49.5,30.22,North,0,0.0,0.0,66,0.00,,,0.00,WUHU216HW,2013-10-10 23:51:00,
2013-10-10 19:56:00,60.6,49.2,30.22,North,0,0.0,0.0,66,0.00,,,0.00,WUHU216HW,2013-10-10 23:56:00,
2013-10-10 20:01:00,60.4,49.4,30.22,North,0,0.0,0.0,67,0.00,,,0.00,WUHU216HW,2013-10-11 00:01:00,
2013-10-10 20:06:00,60.0,49.1,30.22,North,0,0.0,0.0,67,0.00,,,0.00,WUHU216HW,2013-10-11 00:06:00,
2013-10-10 20:11:00,59.7,49.1,30.22,North,0,0.0,0.0,68,0.00,,,0.00,WUHU216HW,2013-10-11 00:11:00,
2013-10-10 20:16:00,59.3,48.9,30.22,North,0,0.0,0.0,68,0.00,,,0.00,WUHU216HW,2013-10-11 00:16:00,
2013-10-10 20:21:00,59.0,48.8,30.22,North,0,0.0,0.0,69,0.00,,,0.00,WUHU216HW,2013-10-11 00:21:00,
2013-10-10 20:26:00,58.8,48.6,30.22,North,0,0.0,0.0,69,0.00,,,0.00,WUHU216HW,2013-10-11 00:26:00,
2013-10-10 20:31:00,58.8,48.6,30.22,North,0,0.0,0.0,69,0.00,,,0.00,WUHU216HW,2013-10-11 00:31:00,
2013-10-10 20:36:00,58.6,48.5,30.22,North,0,0.0,0.0,69,0.00,,,0.00,WUHU216HW,2013-10-11 00:36:00,
2013-10-10 20:41:00,58.2,48.1,30.22,North,0,0.0,0.0,69,0.00,,,0.00,WUHU216HW,2013-10-11 00:41:00,
2013-10-10 20:46:00,57.9,48.2,30.22,North,0,0.0,0.0,70,0.00,,,0.00,WUHU216HW,2013-10-11 00:46:00,
2013-10-10 20:51:00,57.7,48.0,30.22,North,0,0.0,0.0,70,0.00,,,0.00,WUHU216HW,2013-10-11 00:51:00,
2013-10-10 20:56:00,57.5,48.2,30.22,North,0,0.0,0.0,71,0.00,,,0.00,WUHU216HW,2013-10-11 00:56:00,
2013-10-10 21:01:00,57.3,48.0,30.22,North,0,0.0,0.0,71,0.00,,,0.00,WUHU216HW,2013-10-11 01:01:00,
2013-10-10 21:06:00,57.0,48.0,30.22,North,0,0.0,0.0,72,0.00,,,0.00,WUHU216HW,2013-10-11 01:06:00,
2013-10-10 21:11:00,57.0,48.0,30.22,North,0,0.0,0.0,72,0.00,,,0.00,WUHU216HW,2013-10-11 01:11:00,
2013-10-10 21:16:00,56.8,48.2,30.22,North,0,0.0,0.0,73,0.00,,,0.00,WUHU216HW,2013-10-11 01:16:00,
2013-10-10 21:21:00,56.4,47.8,30.22,North,0,0.0,0.0,73,0.00,,,0.00,WUHU216HW,2013-10-11 01:21:00,
2013-10-10 21:26:00,56.3,47.7,30.22,North,0,0.0,0.0,73,0.00,,,0.00,WUHU216HW,2013-10-11 01:26:00,
2013-10-10 21:31:00,56.1,47.5,30.22,North,0,0.0,0.0,73,0.00,,,0.00,WUHU216HW,2013-10-11 01:31:00,
2013-10-10 21:36:00,55.9,47.3,30.22,North,0,0.0,0.0,73,0.00,,,0.00,WUHU216HW,2013-10-11 01:36:00,
2013-10-10 21:41:00,55.9,47.7,30.23,North,0,0.0,0.0,74,0.00,,,0.00,WUHU216HW,2013-10-11 01:41:00,
2013-10-10 21:46:00,55.5,47.3,30.22,North,0,0.0,0.0,74,0.00,,,0.00,WUHU216HW,2013-10-11 01:46:00,
2013-10-10 21:51:00,55.5,47.7,30.22,North,0,0.0,0.0,75,0.00,,,0.00,WUHU216HW,2013-10-11 01:51:00,
2013-10-10 21:56:00,55.2,47.3,30.22,North,0,0.0,0.0,75,0.00,,,0.00,WUHU216HW,2013-10-11 01:56:00,
2013-10-10 22:01:00,55.2,47.3,30.22,North,0,0.0,0.0,75,0.00,,,0.00,WUHU216HW,2013-10-11 02:01:00,
2013-10-10 22:06:00,55.0,47.2,30.22,North,0,0.0,0.0,75,0.00,,,0.00,WUHU216HW,2013-10-11 02:06:00,
2013-10-10 22:11:00,54.8,47.0,30.22,North,0,0.0,0.0,75,0.00,,,0.00,WUHU216HW,2013-10-11 02:11:00,
2013-10-10 22:16:00,54.6,47.2,30.22,North,0,0.0,0.0,76,0.00,,,0.00,WUHU216HW,2013-10-11 02:16:00,
2013-10-10 22:21:00,54.5,47.0,30.22,North,0,0.0,0.0,76,0.00,,,0.00,WUHU216HW,2013-10-11 02:21:00,
2013-10-10 22:26:00,54.3,46.8,30.22,North,0,0.0,0.0,76,0.00,,,0.00,WUHU216HW,2013-10-11 02:26:00,
2013-10-10 22:31:00,54.3,47.2,30.22,North,0,0.0,0.0,77,0.00,,,0.00,WUHU216HW,2013-10-11 02:31:00,
2013-10-10 22:36:00,54.1,46.7,30.22,North,0,0.0,0.0,76,0.00,,,0.00,WUHU216HW,2013-10-11 02:36:00,
2013-10-10 22:41:00,53.9,46.5,30.22,North,0,0.0,0.0,76,0.00,,,0.00,WUHU216HW,2013-10-11 02:41:00,
2013-10-10 22:46:00,53.7,46.7,30.22,North,0,0.0,0.0,77,0.00,,,0.00,WUHU216HW,2013-10-11 02:46:00,
2013-10-10 22:51:00,53.7,46.7,30.22,North,0,0.0,0.0,77,0.00,,,0.00,WUHU216HW,2013-10-11 02:51:00,
2013-10-10 22:56:00,53.6,46.4,30.21,North,0,0.0,0.0,77,0.00,,,0.00,WUHU216HW,2013-10-11 02:56:00,
2013-10-10 23:01:00,53.4,46.4,30.21,North,0,0.0,0.0,77,0.00,,,0.00,WUHU216HW,2013-10-11 03:01:00,
2013-10-10 23:06:00,53.4,46.4,30.22,North,0,0.0,0.0,77,0.00,,,0.00,WUHU216HW,2013-10-11 03:06:00,
2013-10-10 23:11:00,53.2,46.2,30.22,North,0,0.0,0.0,77,0.00,,,0.00,WUHU216HW,2013-10-11 03:11:00,
2013-10-10 23:16:00,53.2,46.5,30.21,North,0,0.0,0.0,78,0.00,,,0.00,WUHU216HW,2013-10-11 03:16:00,
2013-10-10 23:21:00,52.8,46.2,30.21,North,0,0.0,0.0,78,0.00,,,0.00,WUHU216HW,2013-10-11 03:21:00,
2013-10-10 23:26:00,52.8,46.2,30.21,North,0,0.0,0.0,78,0.00,,,0.00,WUHU216HW,2013-10-11 03:26:00,
2013-10-10 23:31:00,52.7,46.0,30.21,North,0,0.0,0.0,78,0.00,,,0.00,WUHU216HW,2013-10-11 03:31:00,
2013-10-10 23:36:00,52.7,46.0,30.21,North,0,0.0,0.0,78,0.00,,,0.00,WUHU216HW,2013-10-11 03:36:00,
2013-10-10 23:41:00,52.5,45.8,30.21,North,0,0.0,0.0,78,0.00,,,0.00,WUHU216HW,2013-10-11 03:41:00,
2013-10-10 23:46:00,52.3,46.0,30.21,North,0,0.0,0.0,79,0.00,,,0.00,WUHU216HW,2013-10-11 03:46:00,
2013-10-10 23:51:00,52.3,46.0,30.21,North,0,0.0,0.0,79,0.00,,,0.00,WUHU216HW,2013-10-11 03:51:00,
2013-10-10 23:56:00,52.1,45.8,30.21,North,0,0.0,0.0,79,0.00,,,0.00,WUHU216HW,2013-10-11 03:56:00,